Itzehoe, Germany

10:38 PM CEST on July 05, 2015 (GMT +0200)
Itzehoe | | Change Station
CLOSE
Current Station
Personal Weather Station
Location: Itzehoe, SCHLESWIG-HOLSTEIN
Elevation: 72 ft
Nearby Weather Stations

Elev 72 ft 53.93 °N, 9.51 °E | Updated 22 seconds ago

Thunderstorms and Rain
Thunderstorm Rain
68.5 °F
Feels Like 68.5 °F
N
0.0
Wind Variable Wind from West
Gusts 0.0 mph

Today
High -- | Low -- °F
--% Chance of Precip.
Yesterday
High -- | Low -- °F
Precip. -- in
4:56 AM 9:54 PM
Waning Gibbous, 82% visible
Pressure 29.89 in
Visibility 5.6 miles
Clouds Few 2500 ft
Scattered Clouds 4000 ft
Mostly Cloudy 6000 ft
Dew Point 67 °F
Humidity 95%
Rainfall 0.38 in
Snow Depth Not available.
UV 0 out of 12
Pollen Not available.
Air Quality Not available.
Flu Activity Not available.
METAR EDDH 052020Z 29008KT 230V330 9000 TSRA FEW025 SCT040CB BKN060 21/20 Q1012 BECMG NSW

More Conditions Fewer Conditions

Pressure 29.89 in
Visibility 5.6 miles
Clouds Few 2500 ft
Scattered Clouds 4000 ft
Mostly Cloudy 6000 ft
Dew Point 67 °F
Humidity 95%
Rainfall 0.38 in
Snow Depth Not available.
UV 0 out of 12
Pollen Not available.
Air Quality Not available.
Flu Activity Not available.
METAR EDDH 052020Z 29008KT 230V330 9000 TSRA FEW025 SCT040CB BKN060 21/20 Q1012 BECMG NSW

More Conditions Fewer Conditions

10-Day Weather Forecast

×

Almanac

Astronomy

Jul. 05, 2015 Rise Set
Actual Time
Civil Twilight
Nautical Twilight
Astronomical Twilight
Moon
Length of Visible Light
Length of Day
Tomorrow will be .
, % of the Moon is Illuminated

Today's Extremes

Country Highs Country Lows

Community

WunderPhotos

Upload Photos

1,835,379 photos uploaded!

WunderBlogs® & News

Nearby

Air Quality

  Air Quality AQ Index Pollutant
Not available.

Snow Depth

Station Depth Elevation

Earthquake Activity

City Distance Mag. Time & Date
Minimum magnitude displayed is 2.5.

Coastal Water Temperatures

Place Temperature

Stations

Nearby Weather Stations

Station Location Temp. Windchill Dew Point Humidity Wind Precip. Elev Updated Type